sensor_id;sensor_type;location;lat;lon;timestamp;P1;durP1;ratioP1;P2;durP2;ratioP2
9124;SDS011;4597;48.730;9.114;2023-04-25T00:01:59;1.83;;;1.70;;
9124;SDS011;4597;48.730;9.114;2023-04-25T00:04:25;1.77;;;1.67;;
9124;SDS011;4597;48.730;9.114;2023-04-25T00:06:53;2.20;;;2.10;;
9124;SDS011;4597;48.730;9.114;2023-04-25T00:09:19;2.07;;;1.97;;
9124;SDS011;4597;48.730;9.114;2023-04-25T00:11:44;2.17;;;1.97;;
9124;SDS011;4597;48.730;9.114;2023-04-25T00:14:10;2.70;;;2.23;;
9124;SDS011;4597;48.730;9.114;2023-04-25T00:16:35;1.90;;;1.80;;
9124;SDS011;4597;48.730;9.114;2023-04-25T00:19:01;1.97;;;1.83;;
9124;SDS011;4597;48.730;9.114;2023-04-25T00:21:27;2.37;;;2.10;;
9124;SDS011;4597;48.730;9.114;2023-04-25T00:23:53;2.43;;;2.10;;
9124;SDS011;4597;48.730;9.114;2023-04-25T00:26:20;2.37;;;1.97;;
9124;SDS011;4597;48.730;9.114;2023-04-25T00:28:46;2.13;;;1.90;;
9124;SDS011;4597;48.730;9.114;2023-04-25T00:31:12;2.10;;;2.00;;
9124;SDS011;4597;48.730;9.114;2023-04-25T00:33:37;1.93;;;1.83;;
9124;SDS011;4597;48.730;9.114;2023-04-25T00:36:03;2.53;;;2.27;;
9124;SDS011;4597;48.730;9.114;2023-04-25T00:38:28;2.27;;;1.80;;
9124;SDS011;4597;48.730;9.114;2023-04-25T00:40:54;2.20;;;2.00;;
9124;SDS011;4597;48.730;9.114;2023-04-25T00:43:20;4.07;;;2.20;;
9124;SDS011;4597;48.730;9.114;2023-04-25T00:45:46;5.73;;;3.40;;
9124;SDS011;4597;48.730;9.114;2023-04-25T00:48:13;6.30;;;3.73;;
9124;SDS011;4597;48.730;9.114;2023-04-25T00:50:39;6.80;;;4.33;;
9124;SDS011;4597;48.730;9.114;2023-04-25T00:53:05;5.67;;;3.83;;
9124;SDS011;4597;48.730;9.114;2023-04-25T00:55:31;6.57;;;4.03;;
9124;SDS011;4597;48.730;9.114;2023-04-25T00:57:59;5.80;;;3.47;;
9124;SDS011;4597;48.730;9.114;2023-04-25T01:00:25;3.40;;;3.10;;
9124;SDS011;4597;48.730;9.114;2023-04-25T01:02:51;2.50;;;2.40;;
9124;SDS011;4597;48.730;9.114;2023-04-25T01:05:16;2.50;;;2.30;;
9124;SDS011;4597;48.730;9.114;2023-04-25T01:07:43;2.17;;;2.07;;
9124;SDS011;4597;48.730;9.114;2023-04-25T01:10:10;2.93;;;2.60;;
9124;SDS011;4597;48.730;9.114;2023-04-25T01:12:35;2.37;;;2.17;;
9124;SDS011;4597;48.730;9.114;2023-04-25T01:15:01;2.63;;;2.37;;
9124;SDS011;4597;48.730;9.114;2023-04-25T01:17:27;2.97;;;2.73;;
9124;SDS011;4597;48.730;9.114;2023-04-25T01:19:54;3.47;;;2.53;;
9124;SDS011;4597;48.730;9.114;2023-04-25T01:22:19;2.60;;;2.40;;
9124;SDS011;4597;48.730;9.114;2023-04-25T01:24:45;4.43;;;2.70;;
9124;SDS011;4597;48.730;9.114;2023-04-25T01:27:12;2.70;;;2.50;;
9124;SDS011;4597;48.730;9.114;2023-04-25T01:29:37;2.63;;;2.50;;
9124;SDS011;4597;48.730;9.114;2023-04-25T01:32:04;2.20;;;2.10;;
9124;SDS011;4597;48.730;9.114;2023-04-25T01:34:30;2.30;;;2.20;;
9124;SDS011;4597;48.730;9.114;2023-04-25T01:36:56;2.90;;;2.40;;
9124;SDS011;4597;48.730;9.114;2023-04-25T01:39:24;2.73;;;2.43;;
9124;SDS011;4597;48.730;9.114;2023-04-25T01:41:50;3.03;;;2.47;;
9124;SDS011;4597;48.730;9.114;2023-04-25T01:44:16;2.57;;;2.37;;
9124;SDS011;4597;48.730;9.114;2023-04-25T01:46:41;4.90;;;2.70;;
9124;SDS011;4597;48.730;9.114;2023-04-25T01:49:07;3.07;;;2.67;;
9124;SDS011;4597;48.730;9.114;2023-04-25T01:51:33;3.53;;;3.23;;
9124;SDS011;4597;48.730;9.114;2023-04-25T01:53:58;3.23;;;2.73;;
9124;SDS011;4597;48.730;9.114;2023-04-25T01:56:25;2.77;;;2.57;;
9124;SDS011;4597;48.730;9.114;2023-04-25T01:58:55;2.60;;;2.40;;
9124;SDS011;4597;48.730;9.114;2023-04-25T02:01:20;2.47;;;2.33;;
9124;SDS011;4597;48.730;9.114;2023-04-25T02:03:46;4.47;;;2.70;;
9124;SDS011;4597;48.730;9.114;2023-04-25T02:06:11;3.20;;;2.93;;
9124;SDS011;4597;48.730;9.114;2023-04-25T02:08:37;2.73;;;2.53;;
9124;SDS011;4597;48.730;9.114;2023-04-25T02:11:02;2.60;;;2.40;;
9124;SDS011;4597;48.730;9.114;2023-04-25T02:13:28;3.00;;;2.47;;
9124;SDS011;4597;48.730;9.114;2023-04-25T02:15:53;2.30;;;2.20;;
9124;SDS011;4597;48.730;9.114;2023-04-25T02:18:19;2.93;;;2.73;;
9124;SDS011;4597;48.730;9.114;2023-04-25T02:20:45;3.53;;;2.77;;
9124;SDS011;4597;48.730;9.114;2023-04-25T02:23:11;2.50;;;2.30;;
9124;SDS011;4597;48.730;9.114;2023-04-25T02:25:37;2.63;;;2.43;;
9124;SDS011;4597;48.730;9.114;2023-04-25T02:28:03;2.10;;;2.00;;
9124;SDS011;4597;48.730;9.114;2023-04-25T02:30:28;2.47;;;2.30;;
9124;SDS011;4597;48.730;9.114;2023-04-25T02:32:54;2.30;;;2.20;;
9124;SDS011;4597;48.730;9.114;2023-04-25T02:35:20;2.53;;;2.40;;
9124;SDS011;4597;48.730;9.114;2023-04-25T02:37:45;2.53;;;2.37;;
9124;SDS011;4597;48.730;9.114;2023-04-25T02:40:11;2.30;;;2.13;;
9124;SDS011;4597;48.730;9.114;2023-04-25T02:42:36;2.53;;;2.33;;
9124;SDS011;4597;48.730;9.114;2023-04-25T02:45:02;4.27;;;2.77;;
9124;SDS011;4597;48.730;9.114;2023-04-25T02:47:28;2.47;;;2.37;;
9124;SDS011;4597;48.730;9.114;2023-04-25T02:49:54;2.83;;;2.40;;
9124;SDS011;4597;48.730;9.114;2023-04-25T02:52:20;2.97;;;2.40;;
9124;SDS011;4597;48.730;9.114;2023-04-25T02:54:46;2.70;;;2.47;;
9124;SDS011;4597;48.730;9.114;2023-04-25T02:57:11;3.90;;;2.47;;
9124;SDS011;4597;48.730;9.114;2023-04-25T02:59:37;5.20;;;3.30;;
9124;SDS011;4597;48.730;9.114;2023-04-25T03:02:03;4.07;;;2.80;;
9124;SDS011;4597;48.730;9.114;2023-04-25T03:04:28;2.83;;;2.70;;
9124;SDS011;4597;48.730;9.114;2023-04-25T03:06:53;3.27;;;2.97;;
9124;SDS011;4597;48.730;9.114;2023-04-25T03:09:20;3.30;;;3.10;;
9124;SDS011;4597;48.730;9.114;2023-04-25T03:11:45;3.10;;;2.80;;
9124;SDS011;4597;48.730;9.114;2023-04-25T03:14:12;3.20;;;3.00;;
9124;SDS011;4597;48.730;9.114;2023-04-25T03:16:38;3.17;;;2.97;;
9124;SDS011;4597;48.730;9.114;2023-04-25T03:19:04;3.27;;;3.07;;
9124;SDS011;4597;48.730;9.114;2023-04-25T03:21:30;3.30;;;3.00;;
9124;SDS011;4597;48.730;9.114;2023-04-25T03:23:57;3.47;;;3.27;;
9124;SDS011;4597;48.730;9.114;2023-04-25T03:26:23;3.33;;;3.10;;
9124;SDS011;4597;48.730;9.114;2023-04-25T03:28:48;3.27;;;3.07;;
9124;SDS011;4597;48.730;9.114;2023-04-25T03:31:14;3.20;;;3.00;;
9124;SDS011;4597;48.730;9.114;2023-04-25T03:33:39;3.40;;;3.20;;
9124;SDS011;4597;48.730;9.114;2023-04-25T03:36:05;3.10;;;2.90;;
9124;SDS011;4597;48.730;9.114;2023-04-25T03:38:31;3.33;;;3.07;;
9124;SDS011;4597;48.730;9.114;2023-04-25T03:40:56;3.27;;;3.07;;
9124;SDS011;4597;48.730;9.114;2023-04-25T03:43:22;4.33;;;3.10;;
9124;SDS011;4597;48.730;9.114;2023-04-25T03:45:47;3.40;;;3.10;;
9124;SDS011;4597;48.730;9.114;2023-04-25T03:48:13;3.33;;;3.13;;
9124;SDS011;4597;48.730;9.114;2023-04-25T03:50:38;3.33;;;3.03;;
9124;SDS011;4597;48.730;9.114;2023-04-25T03:53:04;4.47;;;3.23;;
9124;SDS011;4597;48.730;9.114;2023-04-25T03:55:29;3.63;;;3.33;;
9124;SDS011;4597;48.730;9.114;2023-04-25T03:57:55;3.47;;;3.20;;
9124;SDS011;4597;48.730;9.114;2023-04-25T04:00:22;3.90;;;3.60;;
9124;SDS011;4597;48.730;9.114;2023-04-25T04:02:48;3.27;;;2.83;;
9124;SDS011;4597;48.730;9.114;2023-04-25T04:05:14;3.40;;;3.10;;
9124;SDS011;4597;48.730;9.114;2023-04-25T04:07:39;3.50;;;3.17;;
9124;SDS011;4597;48.730;9.114;2023-04-25T04:10:07;4.40;;;3.40;;
9124;SDS011;4597;48.730;9.114;2023-04-25T04:12:33;5.10;;;3.13;;
9124;SDS011;4597;48.730;9.114;2023-04-25T04:14:59;3.37;;;3.10;;
9124;SDS011;4597;48.730;9.114;2023-04-25T04:17:24;4.27;;;3.30;;
9124;SDS011;4597;48.730;9.114;2023-04-25T04:19:50;3.20;;;3.00;;
9124;SDS011;4597;48.730;9.114;2023-04-25T04:22:16;3.90;;;3.50;;
9124;SDS011;4597;48.730;9.114;2023-04-25T04:24:41;3.50;;;2.87;;
9124;SDS011;4597;48.730;9.114;2023-04-25T04:27:11;5.80;;;3.10;;
9124;SDS011;4597;48.730;9.114;2023-04-25T04:29:37;6.03;;;3.27;;
9124;SDS011;4597;48.730;9.114;2023-04-25T04:32:03;3.60;;;3.30;;
9124;SDS011;4597;48.730;9.114;2023-04-25T04:34:29;4.17;;;3.17;;
9124;SDS011;4597;48.730;9.114;2023-04-25T04:36:56;3.30;;;3.10;;
9124;SDS011;4597;48.730;9.114;2023-04-25T04:39:21;3.43;;;2.90;;
9124;SDS011;4597;48.730;9.114;2023-04-25T04:41:47;3.00;;;2.80;;
9124;SDS011;4597;48.730;9.114;2023-04-25T04:44:12;3.40;;;2.90;;
9124;SDS011;4597;48.730;9.114;2023-04-25T04:46:38;3.33;;;3.03;;
9124;SDS011;4597;48.730;9.114;2023-04-25T04:49:05;2.87;;;2.67;;
9124;SDS011;4597;48.730;9.114;2023-04-25T04:51:31;3.30;;;3.00;;
9124;SDS011;4597;48.730;9.114;2023-04-25T04:53:57;7.13;;;3.00;;
9124;SDS011;4597;48.730;9.114;2023-04-25T04:56:27;6.67;;;3.10;;
9124;SDS011;4597;48.730;9.114;2023-04-25T04:58:58;2.93;;;2.70;;
9124;SDS011;4597;48.730;9.114;2023-04-25T05:01:25;6.97;;;3.80;;
9124;SDS011;4597;48.730;9.114;2023-04-25T05:03:51;5.07;;;4.20;;
9124;SDS011;4597;48.730;9.114;2023-04-25T05:06:18;5.77;;;3.47;;
9124;SDS011;4597;48.730;9.114;2023-04-25T05:08:44;4.83;;;3.73;;
9124;SDS011;4597;48.730;9.114;2023-04-25T05:11:10;3.30;;;3.07;;
9124;SDS011;4597;48.730;9.114;2023-04-25T05:13:36;3.27;;;2.80;;
9124;SDS011;4597;48.730;9.114;2023-04-25T05:16:01;3.10;;;2.90;;
9124;SDS011;4597;48.730;9.114;2023-04-25T05:18:27;2.93;;;2.73;;
9124;SDS011;4597;48.730;9.114;2023-04-25T05:20:52;4.67;;;3.03;;
9124;SDS011;4597;48.730;9.114;2023-04-25T05:23:18;3.07;;;2.87;;
9124;SDS011;4597;48.730;9.114;2023-04-25T05:25:43;3.33;;;3.03;;
9124;SDS011;4597;48.730;9.114;2023-04-25T05:28:10;3.77;;;2.67;;
9124;SDS011;4597;48.730;9.114;2023-04-25T05:30:37;3.10;;;2.90;;
9124;SDS011;4597;48.730;9.114;2023-04-25T05:33:03;3.73;;;3.13;;
9124;SDS011;4597;48.730;9.114;2023-04-25T05:35:28;5.70;;;3.53;;
9124;SDS011;4597;48.730;9.114;2023-04-25T05:37:54;3.03;;;2.73;;
9124;SDS011;4597;48.730;9.114;2023-04-25T05:40:19;5.83;;;3.03;;
9124;SDS011;4597;48.730;9.114;2023-04-25T05:42:45;3.43;;;3.13;;
9124;SDS011;4597;48.730;9.114;2023-04-25T05:45:11;6.13;;;3.23;;
9124;SDS011;4597;48.730;9.114;2023-04-25T05:47:36;3.30;;;3.10;;
9124;SDS011;4597;48.730;9.114;2023-04-25T05:50:02;4.67;;;3.10;;
9124;SDS011;4597;48.730;9.114;2023-04-25T05:52:27;3.13;;;2.93;;
9124;SDS011;4597;48.730;9.114;2023-04-25T05:54:53;3.30;;;3.00;;
9124;SDS011;4597;48.730;9.114;2023-04-25T05:57:19;3.37;;;3.07;;
9124;SDS011;4597;48.730;9.114;2023-04-25T05:59:48;3.33;;;3.03;;
9124;SDS011;4597;48.730;9.114;2023-04-25T06:02:14;3.23;;;3.03;;
9124;SDS011;4597;48.730;9.114;2023-04-25T06:04:40;3.20;;;3.00;;
9124;SDS011;4597;48.730;9.114;2023-04-25T06:07:05;2.80;;;2.60;;
9124;SDS011;4597;48.730;9.114;2023-04-25T06:09:31;3.13;;;2.93;;
9124;SDS011;4597;48.730;9.114;2023-04-25T06:11:56;3.40;;;3.10;;
9124;SDS011;4597;48.730;9.114;2023-04-25T06:14:22;3.20;;;2.93;;
9124;SDS011;4597;48.730;9.114;2023-04-25T06:16:47;3.13;;;2.90;;
9124;SDS011;4597;48.730;9.114;2023-04-25T06:19:13;3.17;;;2.97;;
9124;SDS011;4597;48.730;9.114;2023-04-25T06:21:38;3.27;;;3.00;;
9124;SDS011;4597;48.730;9.114;2023-04-25T06:24:04;4.50;;;3.40;;
9124;SDS011;4597;48.730;9.114;2023-04-25T06:26:29;3.67;;;3.37;;
9124;SDS011;4597;48.730;9.114;2023-04-25T06:28:55;3.20;;;2.90;;
9124;SDS011;4597;48.730;9.114;2023-04-25T06:31:20;3.27;;;3.03;;
9124;SDS011;4597;48.730;9.114;2023-04-25T06:33:46;2.90;;;2.70;;
9124;SDS011;4597;48.730;9.114;2023-04-25T06:36:13;3.13;;;2.93;;
9124;SDS011;4597;48.730;9.114;2023-04-25T06:38:38;3.80;;;3.43;;
9124;SDS011;4597;48.730;9.114;2023-04-25T06:41:04;3.13;;;2.90;;
9124;SDS011;4597;48.730;9.114;2023-04-25T06:43:29;4.33;;;3.20;;
9124;SDS011;4597;48.730;9.114;2023-04-25T06:45:58;3.40;;;3.10;;
9124;SDS011;4597;48.730;9.114;2023-04-25T06:48:24;3.37;;;3.10;;
9124;SDS011;4597;48.730;9.114;2023-04-25T06:50:50;3.10;;;2.80;;
9124;SDS011;4597;48.730;9.114;2023-04-25T06:53:16;3.83;;;3.00;;
9124;SDS011;4597;48.730;9.114;2023-04-25T06:55:41;4.10;;;3.80;;
9124;SDS011;4597;48.730;9.114;2023-04-25T06:58:07;3.50;;;3.20;;
9124;SDS011;4597;48.730;9.114;2023-04-25T07:00:32;3.00;;;2.80;;
9124;SDS011;4597;48.730;9.114;2023-04-25T07:02:58;3.00;;;2.80;;
9124;SDS011;4597;48.730;9.114;2023-04-25T07:05:24;3.30;;;3.10;;
9124;SDS011;4597;48.730;9.114;2023-04-25T07:07:49;4.07;;;2.90;;
9124;SDS011;4597;48.730;9.114;2023-04-25T07:10:15;3.10;;;2.90;;
9124;SDS011;4597;48.730;9.114;2023-04-25T07:12:40;2.97;;;2.77;;
9124;SDS011;4597;48.730;9.114;2023-04-25T07:15:06;3.07;;;2.87;;
9124;SDS011;4597;48.730;9.114;2023-04-25T07:17:34;4.20;;;3.10;;
9124;SDS011;4597;48.730;9.114;2023-04-25T07:20:00;3.43;;;3.13;;
9124;SDS011;4597;48.730;9.114;2023-04-25T07:22:25;2.87;;;2.67;;
9124;SDS011;4597;48.730;9.114;2023-04-25T07:24:51;3.40;;;3.17;;
9124;SDS011;4597;48.730;9.114;2023-04-25T07:27:18;3.87;;;3.47;;
9124;SDS011;4597;48.730;9.114;2023-04-25T07:29:43;3.97;;;3.30;;
9124;SDS011;4597;48.730;9.114;2023-04-25T07:32:09;7.13;;;3.97;;
9124;SDS011;4597;48.730;9.114;2023-04-25T07:34:37;10.03;;;3.57;;
9124;SDS011;4597;48.730;9.114;2023-04-25T07:37:03;6.53;;;3.60;;
9124;SDS011;4597;48.730;9.114;2023-04-25T07:39:31;4.70;;;3.83;;
9124;SDS011;4597;48.730;9.114;2023-04-25T07:41:56;3.77;;;3.47;;
9124;SDS011;4597;48.730;9.114;2023-04-25T07:44:23;5.40;;;3.63;;
9124;SDS011;4597;48.730;9.114;2023-04-25T07:46:49;7.17;;;4.20;;
9124;SDS011;4597;48.730;9.114;2023-04-25T07:49:15;5.90;;;4.00;;
9124;SDS011;4597;48.730;9.114;2023-04-25T07:51:40;5.57;;;3.90;;
9124;SDS011;4597;48.730;9.114;2023-04-25T07:54:08;5.07;;;4.30;;
9124;SDS011;4597;48.730;9.114;2023-04-25T07:56:34;3.90;;;3.60;;
9124;SDS011;4597;48.730;9.114;2023-04-25T07:59:00;5.60;;;3.97;;
9124;SDS011;4597;48.730;9.114;2023-04-25T08:01:25;5.40;;;4.17;;
9124;SDS011;4597;48.730;9.114;2023-04-25T08:03:51;5.50;;;4.27;;
9124;SDS011;4597;48.730;9.114;2023-04-25T08:06:17;7.73;;;4.10;;
9124;SDS011;4597;48.730;9.114;2023-04-25T08:08:43;5.20;;;3.90;;
9124;SDS011;4597;48.730;9.114;2023-04-25T08:11:08;5.47;;;4.23;;
9124;SDS011;4597;48.730;9.114;2023-04-25T08:13:34;4.53;;;3.90;;
9124;SDS011;4597;48.730;9.114;2023-04-25T08:16:00;4.40;;;4.00;;
9124;SDS011;4597;48.730;9.114;2023-04-25T08:18:25;4.93;;;4.17;;
9124;SDS011;4597;48.730;9.114;2023-04-25T08:20:51;5.17;;;4.53;;
9124;SDS011;4597;48.730;9.114;2023-04-25T08:23:16;4.30;;;3.73;;
9124;SDS011;4597;48.730;9.114;2023-04-25T08:25:42;5.70;;;4.37;;
9124;SDS011;4597;48.730;9.114;2023-04-25T08:28:07;5.70;;;4.20;;
9124;SDS011;4597;48.730;9.114;2023-04-25T08:30:33;7.23;;;4.40;;
9124;SDS011;4597;48.730;9.114;2023-04-25T08:32:58;5.40;;;4.77;;
9124;SDS011;4597;48.730;9.114;2023-04-25T08:35:24;4.37;;;4.00;;
9124;SDS011;4597;48.730;9.114;2023-04-25T08:37:50;5.67;;;4.80;;
9124;SDS011;4597;48.730;9.114;2023-04-25T08:40:16;5.27;;;4.73;;
9124;SDS011;4597;48.730;9.114;2023-04-25T08:42:42;6.60;;;5.17;;
9124;SDS011;4597;48.730;9.114;2023-04-25T08:45:08;6.53;;;5.43;;
9124;SDS011;4597;48.730;9.114;2023-04-25T08:47:34;8.90;;;5.80;;
9124;SDS011;4597;48.730;9.114;2023-04-25T08:50:02;7.17;;;5.80;;
9124;SDS011;4597;48.730;9.114;2023-04-25T08:52:30;6.33;;;5.73;;
9124;SDS011;4597;48.730;9.114;2023-04-25T08:55:00;6.70;;;6.03;;
9124;SDS011;4597;48.730;9.114;2023-04-25T08:57:27;6.60;;;6.00;;
9124;SDS011;4597;48.730;9.114;2023-04-25T08:59:53;8.10;;;6.40;;
9124;SDS011;4597;48.730;9.114;2023-04-25T09:02:20;7.23;;;6.20;;
9124;SDS011;4597;48.730;9.114;2023-04-25T09:04:46;6.67;;;6.07;;
9124;SDS011;4597;48.730;9.114;2023-04-25T09:07:12;7.60;;;6.80;;
9124;SDS011;4597;48.730;9.114;2023-04-25T09:09:40;6.97;;;6.37;;
9124;SDS011;4597;48.730;9.114;2023-04-25T09:12:06;8.07;;;7.07;;
9124;SDS011;4597;48.730;9.114;2023-04-25T09:14:32;7.63;;;6.87;;
9124;SDS011;4597;48.730;9.114;2023-04-25T09:17:02;7.80;;;7.00;;
9124;SDS011;4597;48.730;9.114;2023-04-25T09:19:30;7.37;;;6.73;;
9124;SDS011;4597;48.730;9.114;2023-04-25T09:22:01;6.53;;;5.93;;
9124;SDS011;4597;48.730;9.114;2023-04-25T09:24:30;6.53;;;6.03;;
9124;SDS011;4597;48.730;9.114;2023-04-25T09:26:56;6.00;;;5.50;;
9124;SDS011;4597;48.730;9.114;2023-04-25T09:29:28;6.10;;;5.60;;
9124;SDS011;4597;48.730;9.114;2023-04-25T09:32:10;7.33;;;6.00;;
9124;SDS011;4597;48.730;9.114;2023-04-25T09:34:42;5.40;;;5.00;;
9124;SDS011;4597;48.730;9.114;2023-04-25T09:37:09;5.47;;;4.97;;
9124;SDS011;4597;48.730;9.114;2023-04-25T09:39:36;5.90;;;5.40;;
9124;SDS011;4597;48.730;9.114;2023-04-25T09:42:03;5.10;;;4.70;;
9124;SDS011;4597;48.730;9.114;2023-04-25T09:44:29;5.00;;;4.50;;
9124;SDS011;4597;48.730;9.114;2023-04-25T09:46:55;4.90;;;4.50;;
9124;SDS011;4597;48.730;9.114;2023-04-25T09:49:22;4.80;;;4.30;;
9124;SDS011;4597;48.730;9.114;2023-04-25T09:51:57;5.27;;;4.70;;
9124;SDS011;4597;48.730;9.114;2023-04-25T09:54:24;5.20;;;4.70;;
9124;SDS011;4597;48.730;9.114;2023-04-25T09:56:51;5.17;;;4.77;;
9124;SDS011;4597;48.730;9.114;2023-04-25T09:59:19;4.37;;;3.97;;
9124;SDS011;4597;48.730;9.114;2023-04-25T10:01:46;4.50;;;4.10;;
9124;SDS011;4597;48.730;9.114;2023-04-25T10:04:15;5.70;;;5.20;;
9124;SDS011;4597;48.730;9.114;2023-04-25T10:06:45;4.97;;;4.53;;
9124;SDS011;4597;48.730;9.114;2023-04-25T10:09:14;5.47;;;4.97;;
9124;SDS011;4597;48.730;9.114;2023-04-25T10:11:40;4.57;;;4.17;;
9124;SDS011;4597;48.730;9.114;2023-04-25T10:14:06;4.47;;;4.17;;
9124;SDS011;4597;48.730;9.114;2023-04-25T10:16:31;4.73;;;4.33;;
9124;SDS011;4597;48.730;9.114;2023-04-25T10:18:58;4.97;;;3.83;;
9124;SDS011;4597;48.730;9.114;2023-04-25T10:21:23;4.47;;;4.17;;
9124;SDS011;4597;48.730;9.114;2023-04-25T10:23:51;5.40;;;4.60;;
9124;SDS011;4597;48.730;9.114;2023-04-25T10:26:17;5.03;;;4.07;;
9124;SDS011;4597;48.730;9.114;2023-04-25T10:28:59;4.50;;;3.77;;
9124;SDS011;4597;48.730;9.114;2023-04-25T10:31:26;4.03;;;3.60;;
9124;SDS011;4597;48.730;9.114;2023-04-25T10:33:52;4.23;;;3.83;;
9124;SDS011;4597;48.730;9.114;2023-04-25T10:36:19;4.13;;;3.37;;
9124;SDS011;4597;48.730;9.114;2023-04-25T10:38:47;4.27;;;3.67;;
9124;SDS011;4597;48.730;9.114;2023-04-25T10:41:13;4.87;;;4.47;;
9124;SDS011;4597;48.730;9.114;2023-04-25T10:43:40;4.50;;;4.10;;
9124;SDS011;4597;48.730;9.114;2023-04-25T10:46:28;6.47;;;4.80;;
9124;SDS011;4597;48.730;9.114;2023-04-25T10:48:57;5.00;;;4.57;;
9124;SDS011;4597;48.730;9.114;2023-04-25T10:51:27;5.00;;;4.53;;
9124;SDS011;4597;48.730;9.114;2023-04-25T10:56:21;4.40;;;4.00;;
9124;SDS011;4597;48.730;9.114;2023-04-25T11:01:40;3.47;;;3.27;;
9124;SDS011;4597;48.730;9.114;2023-04-25T11:04:19;3.40;;;3.20;;
9124;SDS011;4597;48.730;9.114;2023-04-25T11:09:36;3.10;;;2.90;;
9124;SDS011;4597;48.730;9.114;2023-04-25T11:12:04;3.20;;;2.90;;
9124;SDS011;4597;48.730;9.114;2023-04-25T11:14:31;4.33;;;2.70;;
9124;SDS011;4597;48.730;9.114;2023-04-25T11:16:57;2.80;;;2.63;;
9124;SDS011;4597;48.730;9.114;2023-04-25T11:19:24;2.90;;;2.70;;
9124;SDS011;4597;48.730;9.114;2023-04-25T11:21:50;3.00;;;2.90;;
9124;SDS011;4597;48.730;9.114;2023-04-25T11:24:19;3.67;;;3.27;;
9124;SDS011;4597;48.730;9.114;2023-04-25T11:26:50;3.47;;;3.00;;
9124;SDS011;4597;48.730;9.114;2023-04-25T11:29:15;4.33;;;3.20;;
9124;SDS011;4597;48.730;9.114;2023-04-25T11:31:44;3.40;;;3.20;;
9124;SDS011;4597;48.730;9.114;2023-04-25T11:34:10;3.63;;;3.40;;
9124;SDS011;4597;48.730;9.114;2023-04-25T11:36:36;4.47;;;4.07;;
9124;SDS011;4597;48.730;9.114;2023-04-25T11:39:03;4.63;;;4.23;;
9124;SDS011;4597;48.730;9.114;2023-04-25T11:41:30;4.83;;;4.43;;
9124;SDS011;4597;48.730;9.114;2023-04-25T11:43:56;5.40;;;4.40;;
9124;SDS011;4597;48.730;9.114;2023-04-25T11:46:21;5.37;;;4.73;;
9124;SDS011;4597;48.730;9.114;2023-04-25T11:48:47;5.67;;;5.07;;
9124;SDS011;4597;48.730;9.114;2023-04-25T11:51:13;5.80;;;4.90;;
9124;SDS011;4597;48.730;9.114;2023-04-25T11:53:40;4.93;;;4.43;;
9124;SDS011;4597;48.730;9.114;2023-04-25T11:56:10;5.67;;;4.50;;
9124;SDS011;4597;48.730;9.114;2023-04-25T12:03:56;5.40;;;4.70;;
9124;SDS011;4597;48.730;9.114;2023-04-25T12:06:25;7.10;;;4.73;;
9124;SDS011;4597;48.730;9.114;2023-04-25T12:09:04;4.70;;;4.20;;
9124;SDS011;4597;48.730;9.114;2023-04-25T12:11:31;5.53;;;4.90;;
9124;SDS011;4597;48.730;9.114;2023-04-25T12:14:03;10.70;;;5.10;;
9124;SDS011;4597;48.730;9.114;2023-04-25T12:16:45;5.77;;;5.27;;
9124;SDS011;4597;48.730;9.114;2023-04-25T12:19:14;7.23;;;4.93;;
9124;SDS011;4597;48.730;9.114;2023-04-25T12:21:41;6.40;;;5.00;;
9124;SDS011;4597;48.730;9.114;2023-04-25T12:24:18;8.90;;;5.40;;
9124;SDS011;4597;48.730;9.114;2023-04-25T12:27:05;10.53;;;5.43;;
9124;SDS011;4597;48.730;9.114;2023-04-25T12:29:32;6.47;;;5.80;;
9124;SDS011;4597;48.730;9.114;2023-04-25T12:31:59;5.73;;;5.23;;
9124;SDS011;4597;48.730;9.114;2023-04-25T12:34:26;7.93;;;6.40;;
9124;SDS011;4597;48.730;9.114;2023-04-25T12:36:52;7.23;;;6.17;;
9124;SDS011;4597;48.730;9.114;2023-04-25T12:39:18;7.07;;;6.37;;
9124;SDS011;4597;48.730;9.114;2023-04-25T12:41:49;7.57;;;6.17;;
9124;SDS011;4597;48.730;9.114;2023-04-25T12:44:15;9.60;;;6.47;;
9124;SDS011;4597;48.730;9.114;2023-04-25T12:46:41;8.00;;;7.17;;
9124;SDS011;4597;48.730;9.114;2023-04-25T12:49:07;10.50;;;7.33;;
9124;SDS011;4597;48.730;9.114;2023-04-25T12:51:33;8.20;;;7.13;;
9124;SDS011;4597;48.730;9.114;2023-04-25T12:54:00;8.83;;;6.73;;
9124;SDS011;4597;48.730;9.114;2023-04-25T12:56:27;7.40;;;6.47;;
9124;SDS011;4597;48.730;9.114;2023-04-25T12:58:53;6.97;;;6.27;;
9124;SDS011;4597;48.730;9.114;2023-04-25T13:01:19;7.43;;;6.73;;
9124;SDS011;4597;48.730;9.114;2023-04-25T13:03:45;6.93;;;6.00;;
9124;SDS011;4597;48.730;9.114;2023-04-25T13:06:11;7.10;;;6.40;;
9124;SDS011;4597;48.730;9.114;2023-04-25T13:08:37;7.87;;;6.37;;
9124;SDS011;4597;48.730;9.114;2023-04-25T13:11:03;7.10;;;6.13;;
9124;SDS011;4597;48.730;9.114;2023-04-25T13:13:29;6.20;;;5.70;;
9124;SDS011;4597;48.730;9.114;2023-04-25T13:15:56;6.53;;;5.90;;
9124;SDS011;4597;48.730;9.114;2023-04-25T13:18:22;11.23;;;8.87;;
9124;SDS011;4597;48.730;9.114;2023-04-25T13:20:51;7.43;;;6.33;;
9124;SDS011;4597;48.730;9.114;2023-04-25T13:23:17;6.23;;;5.17;;
9124;SDS011;4597;48.730;9.114;2023-04-25T13:25:42;7.07;;;5.53;;
9124;SDS011;4597;48.730;9.114;2023-04-25T13:28:08;5.10;;;4.67;;
9124;SDS011;4597;48.730;9.114;2023-04-25T13:30:34;5.20;;;4.70;;
9124;SDS011;4597;48.730;9.114;2023-04-25T13:32:59;5.40;;;4.90;;
9124;SDS011;4597;48.730;9.114;2023-04-25T13:35:28;6.03;;;4.90;;
9124;SDS011;4597;48.730;9.114;2023-04-25T13:37:55;8.77;;;5.50;;
9124;SDS011;4597;48.730;9.114;2023-04-25T13:40:20;6.13;;;5.50;;
9124;SDS011;4597;48.730;9.114;2023-04-25T13:42:46;6.73;;;6.03;;
9124;SDS011;4597;48.730;9.114;2023-04-25T13:45:12;6.33;;;5.80;;
9124;SDS011;4597;48.730;9.114;2023-04-25T13:47:37;6.37;;;5.70;;
9124;SDS011;4597;48.730;9.114;2023-04-25T13:50:03;6.47;;;5.23;;
9124;SDS011;4597;48.730;9.114;2023-04-25T13:52:33;6.50;;;5.90;;
9124;SDS011;4597;48.730;9.114;2023-04-25T13:54:59;5.80;;;5.20;;
9124;SDS011;4597;48.730;9.114;2023-04-25T13:57:25;6.00;;;5.40;;
9124;SDS011;4597;48.730;9.114;2023-04-25T13:59:50;6.53;;;5.90;;
9124;SDS011;4597;48.730;9.114;2023-04-25T14:02:16;6.97;;;5.60;;
9124;SDS011;4597;48.730;9.114;2023-04-25T14:04:42;5.83;;;5.07;;
9124;SDS011;4597;48.730;9.114;2023-04-25T14:07:08;6.07;;;5.07;;
9124;SDS011;4597;48.730;9.114;2023-04-25T14:09:34;5.60;;;5.10;;
9124;SDS011;4597;48.730;9.114;2023-04-25T14:11:59;7.37;;;5.33;;
9124;SDS011;4597;48.730;9.114;2023-04-25T14:14:25;5.67;;;5.07;;
9124;SDS011;4597;48.730;9.114;2023-04-25T14:16:51;6.57;;;5.20;;
9124;SDS011;4597;48.730;9.114;2023-04-25T14:19:19;7.80;;;5.30;;
9124;SDS011;4597;48.730;9.114;2023-04-25T14:21:45;7.10;;;5.47;;
9124;SDS011;4597;48.730;9.114;2023-04-25T14:24:11;7.20;;;6.00;;
9124;SDS011;4597;48.730;9.114;2023-04-25T14:26:37;6.10;;;5.50;;
9124;SDS011;4597;48.730;9.114;2023-04-25T14:29:03;9.50;;;7.27;;
9124;SDS011;4597;48.730;9.114;2023-04-25T14:31:30;7.07;;;5.67;;
9124;SDS011;4597;48.730;9.114;2023-04-25T14:33:56;6.43;;;5.13;;
9124;SDS011;4597;48.730;9.114;2023-04-25T14:36:22;7.23;;;6.03;;
9124;SDS011;4597;48.730;9.114;2023-04-25T14:38:47;6.77;;;6.07;;
9124;SDS011;4597;48.730;9.114;2023-04-25T14:41:13;5.90;;;5.40;;
9124;SDS011;4597;48.730;9.114;2023-04-25T14:43:38;7.33;;;6.30;;
9124;SDS011;4597;48.730;9.114;2023-04-25T14:46:07;7.07;;;5.70;;
9124;SDS011;4597;48.730;9.114;2023-04-25T14:48:33;5.70;;;5.20;;
9124;SDS011;4597;48.730;9.114;2023-04-25T14:50:59;7.83;;;5.90;;
9124;SDS011;4597;48.730;9.114;2023-04-25T14:53:25;5.87;;;5.27;;
9124;SDS011;4597;48.730;9.114;2023-04-25T14:55:51;6.47;;;5.17;;
9124;SDS011;4597;48.730;9.114;2023-04-25T14:58:17;7.60;;;5.50;;
9124;SDS011;4597;48.730;9.114;2023-04-25T15:00:42;6.47;;;5.00;;
9124;SDS011;4597;48.730;9.114;2023-04-25T15:03:09;5.90;;;5.30;;
9124;SDS011;4597;48.730;9.114;2023-04-25T15:05:36;5.87;;;4.97;;
9124;SDS011;4597;48.730;9.114;2023-04-25T15:08:02;5.27;;;4.77;;
9124;SDS011;4597;48.730;9.114;2023-04-25T15:10:28;6.33;;;5.70;;
9124;SDS011;4597;48.730;9.114;2023-04-25T15:12:53;6.00;;;5.40;;
9124;SDS011;4597;48.730;9.114;2023-04-25T15:15:19;6.90;;;5.37;;
9124;SDS011;4597;48.730;9.114;2023-04-25T15:17:45;5.47;;;4.97;;
9124;SDS011;4597;48.730;9.114;2023-04-25T15:20:11;5.27;;;4.63;;
9124;SDS011;4597;48.730;9.114;2023-04-25T15:22:38;5.97;;;5.37;;
9124;SDS011;4597;48.730;9.114;2023-04-25T15:25:05;9.60;;;8.33;;